Time;durP1;ratioP1;P1;durP2;ratioP2;P2;SDS_P1;SDS_P2;PMS_P1;PMS_P2;Temp;Humidity;BMP_temperature;BMP_pressure;BME280_temperature;BME280_humidity;BME280_pressure;Samples;Min_cycle;Max_cycle;Signal;HPM_P1;HPM_P2
2021/09/15 00:00:04;;;;;;;7.05;5.28;;;;;;;;;;5022985;28;20771;-64
2021/09/15 00:02:29;;;;;;;8.68;5.30;;;;;;;;;;5023475;28;20477;-63
2021/09/15 00:04:54;;;;;;;7.38;5.40;;;;;;;;;;5017662;28;20029;-64
2021/09/15 00:07:19;;;;;;;7.87;5.37;;;;;;;;;;5023231;28;20087;-64
2021/09/15 00:09:44;;;;;;;7.32;5.40;;;;;;;;;;5020572;28;20323;-63
2021/09/15 00:12:10;;;;;;;10.55;5.55;;;;;;;;;;5022007;28;20061;-64
2021/09/15 00:14:35;;;;;;;6.33;4.80;;;;;;;;;;5040156;28;20025;-63
2021/09/15 00:17:00;;;;;;;8.90;5.78;;;;;;;;;;5024740;28;20791;-64
2021/09/15 00:19:25;;;;;;;8.80;5.68;;;;;;;;;;5019444;28;20033;-64
2021/09/15 00:21:50;;;;;;;7.40;5.67;;;;;;;;;;5020852;28;20040;-64
2021/09/15 00:24:16;;;;;;;7.03;5.30;;;;;;;;;;5023251;28;20327;-63
2021/09/15 00:26:41;;;;;;;8.50;5.30;;;;;;;;;;5027641;28;20288;-64
2021/09/15 00:29:06;;;;;;;7.70;5.53;;;;;;;;;;5021857;28;20078;-64
2021/09/15 00:31:31;;;;;;;6.73;5.13;;;;;;;;;;5021024;28;20048;-64
2021/09/15 00:33:56;;;;;;;8.17;5.67;;;;;;;;;;5027446;28;20309;-64
2021/09/15 00:36:21;;;;;;;9.03;5.57;;;;;;;;;;5021058;28;20318;-64
2021/09/15 00:38:47;;;;;;;8.10;5.67;;;;;;;;;;5024987;28;20276;-63
2021/09/15 00:41:12;;;;;;;7.97;5.80;;;;;;;;;;5017607;28;20376;-65
2021/09/15 00:43:57;;;;;;;6.38;4.95;;;;;;;;;;5017885;28;20057;-63
2021/09/15 00:46:22;;;;;;;8.75;5.32;;;;;;;;;;5021953;28;20048;-64
2021/09/15 00:48:47;;;;;;;7.03;5.18;;;;;;;;;;5026603;28;20022;-63
2021/09/15 00:51:12;;;;;;;7.47;5.60;;;;;;;;;;5020237;28;20338;-64
2021/09/15 00:53:37;;;;;;;9.10;5.70;;;;;;;;;;5023743;28;20299;-63
2021/09/15 00:56:02;;;;;;;8.23;5.70;;;;;;;;;;5024913;28;20087;-63
2021/09/15 00:58:28;;;;;;;7.95;5.57;;;;;;;;;;5026182;28;20034;-63
2021/09/15 01:00:53;;;;;;;9.30;5.57;;;;;;;;;;5021713;28;20030;-63
2021/09/15 01:03:18;;;;;;;8.00;5.20;;;;;;;;;;5028331;28;20272;-64
2021/09/15 01:05:43;;;;;;;8.00;5.47;;;;;;;;;;5028880;28;20272;-64
2021/09/15 01:08:08;;;;;;;9.40;4.95;;;;;;;;;;5029640;28;20126;-63
2021/09/15 01:10:34;;;;;;;9.68;6.13;;;;;;;;;;5029435;28;20029;-65
2021/09/15 01:12:59;;;;;;;7.75;5.22;;;;;;;;;;5029618;28;20091;-64
2021/09/15 01:15:25;;;;;;;7.22;5.30;;;;;;;;;;5018018;28;20053;-65
2021/09/15 01:17:50;;;;;;;7.78;5.55;;;;;;;;;;5025392;28;20448;-64
2021/09/15 01:20:16;;;;;;;8.13;5.13;;;;;;;;;;5026897;28;20026;-64
2021/09/15 01:22:41;;;;;;;6.97;5.10;;;;;;;;;;5025607;28;20690;-64
2021/09/15 01:25:06;;;;;;;10.40;5.70;;;;;;;;;;5024813;28;20276;-64
2021/09/15 01:27:31;;;;;;;9.65;5.60;;;;;;;;;;5027894;28;20116;-63
2021/09/15 01:29:57;;;;;;;10.10;6.10;;;;;;;;;;5029498;28;20056;-64
2021/09/15 01:32:22;;;;;;;7.18;4.93;;;;;;;;;;5024180;28;20038;-64
2021/09/15 01:34:48;;;;;;;7.30;5.53;;;;;;;;;;5028976;28;20080;-64
2021/09/15 01:37:14;;;;;;;8.13;5.18;;;;;;;;;;5026054;28;20275;-64
2021/09/15 01:39:40;;;;;;;7.13;5.38;;;;;;;;;;5023253;28;20029;-63
2021/09/15 01:42:06;;;;;;;8.23;5.93;;;;;;;;;;5025160;28;20457;-64
2021/09/15 01:44:32;;;;;;;10.20;5.32;;;;;;;;;;5023351;28;20029;-64
2021/09/15 01:47:00;;;;;;;10.60;6.28;;;;;;;;;;5023371;28;20130;-63
2021/09/15 01:49:26;;;;;;;7.45;5.50;;;;;;;;;;5029652;28;20025;-64
2021/09/15 01:51:51;;;;;;;8.00;5.97;;;;;;;;;;5029763;28;20132;-63
2021/09/15 01:54:16;;;;;;;8.55;5.97;;;;;;;;;;5024805;28;20041;-63
2021/09/15 01:56:41;;;;;;;8.83;5.40;;;;;;;;;;5025329;28;20307;-64
2021/09/15 01:59:07;;;;;;;8.47;5.90;;;;;;;;;;5028179;28;20291;-64
2021/09/15 02:01:32;;;;;;;8.97;6.17;;;;;;;;;;5025604;28;20365;-64
2021/09/15 02:03:57;;;;;;;9.57;5.88;;;;;;;;;;5021460;28;20264;-64
2021/09/15 02:06:22;;;;;;;9.13;6.20;;;;;;;;;;5023709;28;20079;-64
2021/09/15 02:08:47;;;;;;;10.70;5.90;;;;;;;;;;5025387;28;20260;-63
2021/09/15 02:11:12;;;;;;;8.93;5.80;;;;;;;;;;5018341;28;20510;-64
2021/09/15 02:13:37;;;;;;;7.67;5.20;;;;;;;;;;5026302;28;20288;-64
2021/09/15 02:16:03;;;;;;;9.27;6.15;;;;;;;;;;5023562;28;20434;-64
2021/09/15 02:18:28;;;;;;;9.00;6.20;;;;;;;;;;5029980;28;20025;-63
2021/09/15 02:20:53;;;;;;;11.23;5.50;;;;;;;;;;5025215;28;20018;-64
2021/09/15 02:23:18;;;;;;;10.65;5.97;;;;;;;;;;5025325;28;20057;-65
2021/09/15 02:25:44;;;;;;;7.63;5.77;;;;;;;;;;5026816;28;20268;-63
2021/09/15 02:28:09;;;;;;;8.83;6.20;;;;;;;;;;5021516;28;20878;-64
2021/09/15 02:30:34;;;;;;;8.33;5.50;;;;;;;;;;5024784;28;20291;-63
2021/09/15 02:32:59;;;;;;;9.25;6.30;;;;;;;;;;5022914;28;20403;-66
2021/09/15 02:35:24;;;;;;;10.57;6.10;;;;;;;;;;5017830;28;20025;-64
2021/09/15 02:37:49;;;;;;;9.75;6.70;;;;;;;;;;5019925;28;20284;-63
2021/09/15 02:40:14;;;;;;;10.32;6.63;;;;;;;;;;5024733;28;20034;-64
2021/09/15 02:42:40;;;;;;;10.60;6.73;;;;;;;;;;5023870;28;20131;-64
2021/09/15 02:45:05;;;;;;;9.25;6.72;;;;;;;;;;5026706;28;20279;-64
2021/09/15 02:47:30;;;;;;;9.43;6.40;;;;;;;;;;5028036;28;20087;-64
2021/09/15 02:49:55;;;;;;;8.77;6.53;;;;;;;;;;5018877;28;20613;-64
2021/09/15 02:52:20;;;;;;;7.63;5.75;;;;;;;;;;5024724;28;20156;-64
2021/09/15 02:54:46;;;;;;;9.23;6.20;;;;;;;;;;5029310;28;20022;-64
2021/09/15 02:57:11;;;;;;;10.30;6.93;;;;;;;;;;5022005;28;20099;-64
2021/09/15 02:59:36;;;;;;;10.40;6.30;;;;;;;;;;5019911;28;20307;-64
2021/09/15 03:02:01;;;;;;;8.90;6.65;;;;;;;;;;5026849;28;20382;-64
2021/09/15 03:04:26;;;;;;;10.88;7.05;;;;;;;;;;5026904;28;20112;-64
2021/09/15 03:06:51;;;;;;;12.37;7.23;;;;;;;;;;5024450;28;20037;-64
2021/09/15 03:09:17;;;;;;;11.17;7.37;;;;;;;;;;5023764;28;20292;-63
2021/09/15 03:11:42;;;;;;;11.40;7.25;;;;;;;;;;5022659;28;20651;-64
2021/09/15 03:14:07;;;;;;;10.20;6.93;;;;;;;;;;5028334;28;20029;-63
2021/09/15 03:16:32;;;;;;;8.93;6.97;;;;;;;;;;5022395;28;20144;-64
2021/09/15 03:18:57;;;;;;;10.40;6.88;;;;;;;;;;5020051;28;20040;-63
2021/09/15 03:21:23;;;;;;;11.68;7.85;;;;;;;;;;5023234;28;21788;-64
2021/09/15 03:23:48;;;;;;;9.90;7.20;;;;;;;;;;5021018;28;20111;-64
2021/09/15 03:26:13;;;;;;;8.60;6.45;;;;;;;;;;5028076;28;20456;-64
2021/09/15 03:28:38;;;;;;;9.90;6.50;;;;;;;;;;5020700;28;20052;-64
2021/09/15 03:31:03;;;;;;;10.32;6.85;;;;;;;;;;5028048;28;20029;-64
2021/09/15 03:33:28;;;;;;;10.77;7.53;;;;;;;;;;5024817;28;20485;-64
2021/09/15 03:35:54;;;;;;;8.50;6.20;;;;;;;;;;5023839;28;20268;-65
2021/09/15 03:38:19;;;;;;;8.43;6.35;;;;;;;;;;5022519;28;20018;-64
2021/09/15 03:40:44;;;;;;;15.95;6.75;;;;;;;;;;5026416;28;20018;-63
2021/09/15 03:43:09;;;;;;;9.32;6.50;;;;;;;;;;5021875;28;20022;-64
2021/09/15 03:45:34;;;;;;;9.73;6.15;;;;;;;;;;5026412;28;20110;-64
2021/09/15 03:48:00;;;;;;;10.35;6.72;;;;;;;;;;5024296;28;20373;-63
2021/09/15 03:50:25;;;;;;;8.63;5.63;;;;;;;;;;5021776;28;20024;-64
2021/09/15 03:52:50;;;;;;;9.07;5.97;;;;;;;;;;5024549;28;20044;-63
2021/09/15 03:55:15;;;;;;;12.30;7.47;;;;;;;;;;5018232;28;20812;-63
2021/09/15 03:57:40;;;;;;;11.03;6.70;;;;;;;;;;5020277;28;20292;-63
2021/09/15 04:00:06;;;;;;;9.17;6.47;;;;;;;;;;5023172;28;20350;-64
2021/09/15 04:02:31;;;;;;;15.60;7.30;;;;;;;;;;5025848;28;20294;-64
2021/09/15 04:04:56;;;;;;;8.20;5.87;;;;;;;;;;5025694;28;20018;-63
2021/09/15 04:07:21;;;;;;;9.47;6.03;;;;;;;;;;5021157;28;20287;-64
2021/09/15 04:09:46;;;;;;;7.68;5.88;;;;;;;;;;5025359;28;20363;-62
2021/09/15 04:12:11;;;;;;;11.07;6.47;;;;;;;;;;5020765;28;20385;-62
2021/09/15 04:14:38;;;;;;;8.40;5.80;;;;;;;;;;5021469;28;20362;-62
2021/09/15 04:17:04;;;;;;;8.25;5.68;;;;;;;;;;5024500;28;20294;-62
2021/09/15 04:19:31;;;;;;;12.52;7.00;;;;;;;;;;5019888;28;20030;-62
2021/09/15 04:21:56;;;;;;;10.25;6.80;;;;;;;;;;5020422;28;20022;-62
2021/09/15 04:32:14;;;;;;;12.13;6.80;;;;;;;;;;5027379;28;20083;-62
2021/09/15 04:34:39;;;;;;;7.83;5.63;;;;;;;;;;5030373;28;20808;-62
2021/09/15 04:37:05;;;;;;;9.33;6.13;;;;;;;;;;5027936;28;20280;-62
2021/09/15 04:39:30;;;;;;;9.83;5.90;;;;;;;;;;5031172;28;20337;-62
2021/09/15 04:41:55;;;;;;;12.13;5.70;;;;;;;;;;5030002;28;20311;-62
2021/09/15 04:44:20;;;;;;;8.17;5.97;;;;;;;;;;5030008;28;20370;-63
2021/09/15 04:46:45;;;;;;;9.30;6.40;;;;;;;;;;5023620;28;20294;-62
2021/09/15 04:49:11;;;;;;;9.07;6.47;;;;;;;;;;5023964;28;20377;-63
2021/09/15 04:51:36;;;;;;;9.13;6.22;;;;;;;;;;5023369;28;20037;-62
2021/09/15 04:54:01;;;;;;;10.00;6.28;;;;;;;;;;5023295;28;20382;-62
2021/09/15 04:56:26;;;;;;;11.27;6.30;;;;;;;;;;5023038;28;20029;-63
2021/09/15 04:58:52;;;;;;;11.73;6.10;;;;;;;;;;5018119;28;20794;-64
2021/09/15 05:01:17;;;;;;;9.77;5.97;;;;;;;;;;5023574;28;20088;-62
2021/09/15 05:03:42;;;;;;;8.35;6.15;;;;;;;;;;5014287;28;20267;-62
2021/09/15 05:06:07;;;;;;;11.52;6.03;;;;;;;;;;5040530;28;20053;-62
2021/09/15 05:08:32;;;;;;;8.88;5.70;;;;;;;;;;5024940;28;20022;-62
2021/09/15 05:10:58;;;;;;;8.47;5.93;;;;;;;;;;5027177;28;20105;-62
2021/09/15 05:13:23;;;;;;;9.50;6.30;;;;;;;;;;5018123;28;20334;-62
2021/09/15 05:15:48;;;;;;;10.17;6.03;;;;;;;;;;5028815;28;20056;-62
2021/09/15 05:18:13;;;;;;;9.73;6.88;;;;;;;;;;5027429;28;20276;-61
2021/09/15 05:20:38;;;;;;;8.98;5.97;;;;;;;;;;5039996;28;20041;-62
2021/09/15 05:23:04;;;;;;;8.40;5.32;;;;;;;;;;5027026;28;20071;-62
2021/09/15 05:25:29;;;;;;;8.73;6.03;;;;;;;;;;5029771;28;20025;-64
2021/09/15 05:27:54;;;;;;;8.50;5.88;;;;;;;;;;5024094;28;20116;-62
2021/09/15 05:30:19;;;;;;;8.48;6.10;;;;;;;;;;5014596;28;20029;-63
2021/09/15 05:32:44;;;;;;;6.93;5.13;;;;;;;;;;5028149;28;20029;-62
2021/09/15 05:35:11;;;;;;;6.47;4.85;;;;;;;;;;5030626;28;20260;-62
2021/09/15 05:37:37;;;;;;;8.18;5.38;;;;;;;;;;5030168;28;20493;-62
2021/09/15 05:40:02;;;;;;;8.82;5.55;;;;;;;;;;5024385;28;20018;-63
2021/09/15 05:42:27;;;;;;;6.63;4.55;;;;;;;;;;5028386;28;20053;-62
2021/09/15 05:44:54;;;;;;;8.70;5.00;;;;;;;;;;5024481;28;20077;-62
2021/09/15 05:47:19;;;;;;;6.95;4.95;;;;;;;;;;5028810;28;20418;-62
2021/09/15 05:49:44;;;;;;;8.30;5.47;;;;;;;;;;5030865;28;20026;-62
2021/09/15 05:52:10;;;;;;;11.55;5.07;;;;;;;;;;5029106;28;20776;-62
2021/09/15 05:54:35;;;;;;;11.03;5.20;;;;;;;;;;5021038;28;20035;-62
2021/09/15 05:57:00;;;;;;;7.63;4.60;;;;;;;;;;5023868;28;21238;-62
2021/09/15 05:59:25;;;;;;;10.52;5.60;;;;;;;;;;5027217;28;20288;-63
2021/09/15 06:01:50;;;;;;;9.52;5.53;;;;;;;;;;5030200;28;20112;-62
2021/09/15 06:04:16;;;;;;;7.32;5.32;;;;;;;;;;5023985;28;20021;-63
2021/09/15 06:06:41;;;;;;;8.50;5.30;;;;;;;;;;5023951;28;20145;-63
2021/09/15 06:09:06;;;;;;;11.45;5.50;;;;;;;;;;5026460;28;20322;-63
2021/09/15 06:11:31;;;;;;;9.95;5.57;;;;;;;;;;5027964;28;20033;-63
2021/09/15 06:13:56;;;;;;;8.38;5.43;;;;;;;;;;5024741;28;20021;-63
2021/09/15 06:16:22;;;;;;;7.82;5.07;;;;;;;;;;5038499;28;20036;-62
2021/09/15 06:18:47;;;;;;;10.48;5.07;;;;;;;;;;5030236;28;20033;-62
2021/09/15 06:21:12;;;;;;;8.50;5.60;;;;;;;;;;5028852;28;20104;-63
2021/09/15 06:23:38;;;;;;;8.60;5.50;;;;;;;;;;5029790;28;20075;-63
2021/09/15 06:26:03;;;;;;;9.98;6.05;;;;;;;;;;5027211;28;20030;-61
2021/09/15 06:28:29;;;;;;;6.80;5.47;;;;;;;;;;5029102;28;20025;-62
2021/09/15 06:30:54;;;;;;;9.38;5.50;;;;;;;;;;5028981;28;20025;-63
2021/09/15 06:33:20;;;;;;;10.57;5.75;;;;;;;;;;5030086;28;20117;-61
2021/09/15 06:35:45;;;;;;;9.70;5.32;;;;;;;;;;5022941;28;20064;-63
2021/09/15 06:38:12;;;;;;;7.65;5.13;;;;;;;;;;5025981;28;20034;-62
2021/09/15 06:40:37;;;;;;;8.65;5.85;;;;;;;;;;5029566;28;20017;-63
2021/09/15 06:43:02;;;;;;;10.40;4.90;;;;;;;;;;5025512;28;20507;-63
2021/09/15 06:45:27;;;;;;;9.63;5.57;;;;;;;;;;5027487;28;20033;-62
2021/09/15 06:47:52;;;;;;;8.67;4.90;;;;;;;;;;5028373;28;20623;-62
2021/09/15 06:50:17;;;;;;;8.10;5.43;;;;;;;;;;5023650;28;20279;-62
2021/09/15 06:52:43;;;;;;;9.05;5.60;;;;;;;;;;5025948;28;20300;-62
2021/09/15 06:55:08;;;;;;;8.10;5.10;;;;;;;;;;5028189;28;20484;-63
2021/09/15 06:57:33;;;;;;;6.70;5.00;;;;;;;;;;5020975;28;20522;-62
2021/09/15 06:59:59;;;;;;;10.63;4.97;;;;;;;;;;5023613;28;20028;-62
2021/09/15 07:02:25;;;;;;;9.13;5.43;;;;;;;;;;5023963;28;20291;-63
2021/09/15 07:04:50;;;;;;;8.73;5.22;;;;;;;;;;5029413;28;20292;-62
2021/09/15 07:07:15;;;;;;;8.50;5.00;;;;;;;;;;5016381;28;20597;-62
2021/09/15 07:09:41;;;;;;;9.73;5.60;;;;;;;;;;5012761;28;20042;-63
2021/09/15 07:12:06;;;;;;;9.52;5.28;;;;;;;;;;5041861;28;20391;-62
2021/09/15 07:14:31;;;;;;;9.15;6.03;;;;;;;;;;5029373;28;20021;-63
2021/09/15 07:16:56;;;;;;;8.45;5.35;;;;;;;;;;5029267;28;20108;-62
2021/09/15 07:19:22;;;;;;;8.33;5.50;;;;;;;;;;5013854;28;20034;-62
2021/09/15 07:21:47;;;;;;;8.35;5.45;;;;;;;;;;5021102;28;20276;-62
2021/09/15 07:24:12;;;;;;;11.13;5.87;;;;;;;;;;5028692;28;20740;-62
2021/09/15 07:26:37;;;;;;;7.97;5.60;;;;;;;;;;5028290;28;20768;-62
2021/09/15 07:29:02;;;;;;;7.47;5.13;;;;;;;;;;5025175;28;20272;-62
2021/09/15 07:31:28;;;;;;;7.45;5.63;;;;;;;;;;5029048;28;20345;-62
2021/09/15 07:33:53;;;;;;;7.07;5.03;;;;;;;;;;5026830;28;20029;-63
2021/09/15 07:36:18;;;;;;;11.90;6.03;;;;;;;;;;5025221;28;20308;-63
2021/09/15 07:38:43;;;;;;;7.78;5.53;;;;;;;;;;5028193;28;20499;-62
2021/09/15 07:41:08;;;;;;;9.63;5.55;;;;;;;;;;5028451;28;20117;-62
2021/09/15 07:43:34;;;;;;;9.70;5.30;;;;;;;;;;5021138;28;20041;-62
2021/09/15 07:45:59;;;;;;;8.90;6.15;;;;;;;;;;5027512;28;20159;-63
2021/09/15 07:48:24;;;;;;;8.70;5.32;;;;;;;;;;5028158;28;20090;-62
2021/09/15 07:50:50;;;;;;;9.73;5.47;;;;;;;;;;5028162;28;20129;-64
2021/09/15 07:53:16;;;;;;;9.93;5.28;;;;;;;;;;5025254;28;20366;-61
2021/09/15 07:55:41;;;;;;;8.73;5.93;;;;;;;;;;5027767;28;20049;-61
2021/09/15 07:58:06;;;;;;;10.20;5.57;;;;;;;;;;5027683;28;20427;-62
2021/09/15 08:00:31;;;;;;;8.40;5.43;;;;;;;;;;5028649;28;20021;-62
2021/09/15 08:02:57;;;;;;;11.43;6.10;;;;;;;;;;5022261;28;20282;-62
2021/09/15 08:05:22;;;;;;;7.50;5.30;;;;;;;;;;5024173;28;20025;-62
2021/09/15 08:07:47;;;;;;;9.50;5.27;;;;;;;;;;5020382;28;20324;-62
2021/09/15 08:10:12;;;;;;;9.75;6.10;;;;;;;;;;5027398;28;20280;-62
2021/09/15 08:12:37;;;;;;;10.88;5.78;;;;;;;;;;5031498;28;20048;-63
2021/09/15 08:15:03;;;;;;;7.73;5.10;;;;;;;;;;5030751;28;20103;-62
2021/09/15 08:17:28;;;;;;;9.38;5.35;;;;;;;;;;5024900;28;20284;-63
2021/09/15 08:19:53;;;;;;;13.90;6.28;;;;;;;;;;5030622;28;20032;-62
2021/09/15 08:22:18;;;;;;;10.63;5.40;;;;;;;;;;5028679;28;20536;-63
2021/09/15 08:24:43;;;;;;;6.77;5.10;;;;;;;;;;5032432;28;20092;-62
2021/09/15 08:27:09;;;;;;;9.83;5.47;;;;;;;;;;5031012;28;20252;-62
2021/09/15 08:29:35;;;;;;;8.38;5.45;;;;;;;;;;5032265;28;20334;-62
2021/09/15 08:32:00;;;;;;;9.55;5.57;;;;;;;;;;5025745;28;20041;-62
2021/09/15 08:34:26;;;;;;;7.13;5.18;;;;;;;;;;5032449;28;20024;-62
2021/09/15 08:36:51;;;;;;;8.00;5.50;;;;;;;;;;5032165;28;20052;-63
2021/09/15 08:39:16;;;;;;;7.40;5.45;;;;;;;;;;5030600;28;20021;-62
2021/09/15 08:41:41;;;;;;;9.60;5.63;;;;;;;;;;5031864;28;20135;-63
2021/09/15 08:44:06;;;;;;;8.35;5.32;;;;;;;;;;5031991;28;20389;-63
2021/09/15 08:46:33;;;;;;;14.13;5.93;;;;;;;;;;5031801;28;20476;-62
2021/09/15 08:48:59;;;;;;;10.55;6.10;;;;;;;;;;5030277;28;20751;-63
2021/09/15 08:51:24;;;;;;;8.35;5.57;;;;;;;;;;5031423;28;20095;-62
2021/09/15 08:53:50;;;;;;;8.05;5.53;;;;;;;;;;5032160;28;20109;-63
2021/09/15 08:56:15;;;;;;;7.82;5.18;;;;;;;;;;5031301;28;20021;-63
2021/09/15 08:58:41;;;;;;;9.10;5.63;;;;;;;;;;5032185;28;20520;-63
2021/09/15 09:01:22;;;;;;;9.13;5.70;;;;;;;;;;5023270;28;20479;-63
2021/09/15 09:03:51;;;;;;;9.70;5.18;;;;;;;;;;5030425;28;20121;-63
2021/09/15 09:06:17;;;;;;;10.05;5.47;;;;;;;;;;5032035;28;20164;-63
2021/09/15 09:08:43;;;;;;;8.65;5.60;;;;;;;;;;5031371;28;20045;-63
2021/09/15 09:11:09;;;;;;;9.02;5.30;;;;;;;;;;5029558;28;20386;-62
2021/09/15 09:13:44;;;;;;;8.43;5.15;;;;;;;;;;5031566;28;20064;-62
2021/09/15 09:16:10;;;;;;;7.47;4.65;;;;;;;;;;5031455;28;20396;-63
2021/09/15 09:18:53;;;;;;;7.97;5.38;;;;;;;;;;5031300;28;20142;-63
2021/09/15 09:21:29;;;;;;;7.75;5.00;;;;;;;;;;5027162;28;20056;-63
2021/09/15 09:23:55;;;;;;;7.22;5.63;;;;;;;;;;5021911;28;20044;-63
2021/09/15 09:26:20;;;;;;;10.38;5.00;;;;;;;;;;5031267;28;20021;-63
2021/09/15 09:28:45;;;;;;;6.30;4.67;;;;;;;;;;5031361;28;20377;-62
2021/09/15 09:31:11;;;;;;;6.37;4.57;;;;;;;;;;5029263;28;20283;-62
2021/09/15 09:33:36;;;;;;;8.18;5.22;;;;;;;;;;5030552;28;20605;-62
2021/09/15 09:36:05;;;;;;;9.50;5.05;;;;;;;;;;5031204;28;20029;-62
2021/09/15 09:38:31;;;;;;;8.23;4.95;;;;;;;;;;5030982;28;20456;-63
2021/09/15 09:40:58;;;;;;;8.60;5.15;;;;;;;;;;5030579;28;20050;-62
2021/09/15 09:43:23;;;;;;;7.05;5.20;;;;;;;;;;5027374;28;20036;-63
2021/09/15 09:45:49;;;;;;;14.35;5.30;;;;;;;;;;5031003;28;20461;-62
2021/09/15 09:48:27;;;;;;;6.95;4.78;;;;;;;;;;5030219;28;20029;-62
2021/09/15 09:50:52;;;;;;;6.38;4.68;;;;;;;;;;5030831;28;20024;-62
2021/09/15 09:53:17;;;;;;;10.40;4.60;;;;;;;;;;5027973;28;20412;-63
2021/09/15 09:55:43;;;;;;;7.00;4.40;;;;;;;;;;5030242;28;20344;-62
2021/09/15 09:58:08;;;;;;;8.82;4.78;;;;;;;;;;5030716;28;20022;-63
2021/09/15 10:00:34;;;;;;;8.88;5.22;;;;;;;;;;5030261;28;20028;-62
2021/09/15 10:02:59;;;;;;;7.07;5.00;;;;;;;;;;5030167;28;20024;-63
2021/09/15 10:05:24;;;;;;;9.02;5.15;;;;;;;;;;5027691;28;20053;-62
2021/09/15 10:07:50;;;;;;;7.70;5.33;;;;;;;;;;5030153;28;20045;-63
2021/09/15 10:10:16;;;;;;;9.68;5.28;;;;;;;;;;5030621;28;20253;-62
2021/09/15 10:12:42;;;;;;;9.27;5.80;;;;;;;;;;5029896;28;20067;-62
2021/09/15 10:15:07;;;;;;;8.40;5.25;;;;;;;;;;5023183;28;20473;-63
2021/09/15 10:17:34;;;;;;;10.63;5.65;;;;;;;;;;5030228;28;20076;-63
2021/09/15 10:19:59;;;;;;;13.70;6.18;;;;;;;;;;5030025;28;20053;-62
2021/09/15 10:22:31;;;;;;;9.68;5.93;;;;;;;;;;5029650;28;20064;-64
2021/09/15 10:24:57;;;;;;;10.80;6.13;;;;;;;;;;5028089;28;20807;-62
2021/09/15 10:27:24;;;;;;;9.43;5.20;;;;;;;;;;5029897;28;20056;-62
2021/09/15 10:30:16;;;;;;;8.48;5.35;;;;;;;;;;5029788;28;20109;-62
2021/09/15 10:32:45;;;;;;;9.48;5.90;;;;;;;;;;5028546;28;20053;-63
2021/09/15 10:35:11;;;;;;;8.73;5.53;;;;;;;;;;5028085;28;20031;-63
2021/09/15 10:37:36;;;;;;;11.70;5.97;;;;;;;;;;5029624;28;20388;-64
2021/09/15 10:40:01;;;;;;;11.52;6.88;;;;;;;;;;5029497;28;20029;-63
2021/09/15 10:42:35;;;;;;;9.27;6.15;;;;;;;;;;5029671;28;20069;-63
2021/09/15 10:45:13;;;;;;;8.20;5.90;;;;;;;;;;5029801;28;20028;-63
2021/09/15 10:47:42;;;;;;;9.23;5.65;;;;;;;;;;5025273;28;20051;-63
2021/09/15 10:50:08;;;;;;;9.77;5.93;;;;;;;;;;5029274;28;20053;-63
2021/09/15 10:52:35;;;;;;;8.30;6.18;;;;;;;;;;5029167;28;20569;-62
2021/09/15 10:55:00;;;;;;;10.65;6.43;;;;;;;;;;5029758;28;20109;-63
2021/09/15 10:57:33;;;;;;;10.15;7.20;;;;;;;;;;5027763;28;20105;-63
2021/09/15 10:59:58;;;;;;;8.07;5.43;;;;;;;;;;5029540;28;20104;-63
2021/09/15 11:02:28;;;;;;;8.17;5.40;;;;;;;;;;5029483;28;20554;-63
2021/09/15 11:04:53;;;;;;;8.90;6.55;;;;;;;;;;5029542;28;20313;-63
2021/09/15 11:07:37;;;;;;;9.10;5.43;;;;;;;;;;5025601;28;20112;-63
2021/09/15 11:10:02;;;;;;;8.38;6.03;;;;;;;;;;5023341;28;20037;-62
2021/09/15 11:12:44;;;;;;;8.48;5.50;;;;;;;;;;5028991;28;20029;-63
2021/09/15 11:15:25;;;;;;;10.35;5.68;;;;;;;;;;5024702;28;20022;-63
2021/09/15 11:17:51;;;;;;;7.82;5.18;;;;;;;;;;5027181;28;20041;-63
2021/09/15 11:20:23;;;;;;;8.70;5.63;;;;;;;;;;5026218;28;20453;-62
2021/09/15 11:22:48;;;;;;;10.40;5.75;;;;;;;;;;5029191;28;20041;-62
2021/09/15 11:25:17;;;;;;;8.65;6.13;;;;;;;;;;5028761;28;20022;-62
2021/09/15 11:27:42;;;;;;;8.32;5.93;;;;;;;;;;5028827;28;20021;-62
2021/09/15 11:30:08;;;;;;;9.95;5.20;;;;;;;;;;5027130;28;20507;-63
2021/09/15 11:32:33;;;;;;;11.75;5.35;;;;;;;;;;5019890;28;20484;-63
2021/09/15 11:34:58;;;;;;;11.00;5.80;;;;;;;;;;5023644;28;20506;-62
2021/09/15 11:37:25;;;;;;;8.27;5.70;;;;;;;;;;5019690;28;20472;-63
2021/09/15 11:39:57;;;;;;;12.07;5.80;;;;;;;;;;5020867;28;20022;-62
2021/09/15 11:42:23;;;;;;;8.80;5.45;;;;;;;;;;5020818;28;20106;-63
2021/09/15 11:44:49;;;;;;;12.02;5.50;;;;;;;;;;5019716;28;20014;-63
2021/09/15 11:47:21;;;;;;;7.82;4.88;;;;;;;;;;5015159;28;20029;-63
2021/09/15 11:49:46;;;;;;;10.30;4.78;;;;;;;;;;5021801;28;20101;-63
2021/09/15 11:52:11;;;;;;;9.77;4.80;;;;;;;;;;5023958;28;20226;-63
2021/09/15 11:54:37;;;;;;;8.70;4.60;;;;;;;;;;5017108;28;20602;-63
2021/09/15 11:57:07;;;;;;;8.77;5.20;;;;;;;;;;5022526;28;20263;-62
2021/09/15 11:59:32;;;;;;;;;;;;;;;;;;5017623;28;20018;-61
2021/09/15 12:01:57;;;;;;;7.57;4.90;;;;;;;;;;5024659;28;19909;-62
2021/09/15 12:04:24;;;;;;;8.85;4.53;;;;;;;;;;5016430;28;20385;-63
2021/09/15 12:06:49;;;;;;;8.48;4.65;;;;;;;;;;5028538;28;20022;-63
2021/09/15 12:09:16;;;;;;;7.83;5.03;;;;;;;;;;5025163;28;20109;-62
2021/09/15 12:11:42;;;;;;;7.50;4.97;;;;;;;;;;5024841;28;20300;-63
2021/09/15 12:14:09;;;;;;;6.45;4.65;;;;;;;;;;5017245;28;20013;-62
2021/09/15 12:16:35;;;;;;;8.68;5.68;;;;;;;;;;5028007;28;20035;-62
2021/09/15 12:19:01;;;;;;;8.95;5.45;;;;;;;;;;5021763;28;20109;-63
2021/09/15 12:21:26;;;;;;;9.38;5.18;;;;;;;;;;5021128;28;20117;-62
2021/09/15 12:24:00;;;;;;;11.15;5.15;;;;;;;;;;5015069;28;20026;-63
2021/09/15 12:26:26;;;;;;;8.75;5.40;;;;;;;;;;5010920;28;20034;-65
2021/09/15 12:29:07;;;;;;;9.20;5.53;;;;;;;;;;5027376;28;20017;-62
2021/09/15 12:31:46;;;;;;;6.35;4.78;;;;;;;;;;5021167;28;20119;-63
2021/09/15 12:34:11;;;;;;;9.98;5.05;;;;;;;;;;5020051;28;20033;-63
2021/09/15 12:36:37;;;;;;;9.00;5.82;;;;;;;;;;5026883;28;20461;-63
2021/09/15 12:39:04;;;;;;;9.18;5.88;;;;;;;;;;5025562;28;20083;-64
2021/09/15 12:41:48;;;;;;;8.15;5.72;;;;;;;;;;5024851;28;20044;-65
2021/09/15 12:44:14;;;;;;;10.52;6.05;;;;;;;;;;5024900;28;20064;-64
2021/09/15 12:46:49;;;;;;;11.68;6.00;;;;;;;;;;5017084;28;20049;-64
2021/09/15 12:49:28;;;;;;;9.45;5.20;;;;;;;;;;5015599;28;20036;-62
2021/09/15 12:52:07;;;;;;;11.48;5.90;;;;;;;;;;5016757;28;20033;-62
2021/09/15 12:54:33;;;;;;;9.77;5.53;;;;;;;;;;5021443;28;20018;-63
2021/09/15 12:57:12;;;;;;;11.57;6.32;;;;;;;;;;5019592;28;20221;-64
2021/09/15 12:59:37;;;;;;;8.98;6.03;;;;;;;;;;5025044;28;20481;-62
2021/09/15 13:02:22;;;;;;;11.75;6.63;;;;;;;;;;5024837;28;20028;-62
2021/09/15 13:04:47;;;;;;;10.85;7.55;;;;;;;;;;5026232;28;20055;-63
2021/09/15 13:07:14;;;;;;;10.13;6.63;;;;;;;;;;5023591;28;20021;-63
2021/09/15 13:09:39;;;;;;;13.20;8.95;;;;;;;;;;5026685;28;20033;-64
2021/09/15 13:12:04;;;;;;;14.32;7.47;;;;;;;;;;5018588;28;20041;-62
2021/09/15 13:14:29;;;;;;;11.88;6.90;;;;;;;;;;5041926;28;20026;-63
2021/09/15 13:16:55;;;;;;;11.00;7.17;;;;;;;;;;5027220;28;20444;-64
2021/09/15 13:19:20;;;;;;;13.10;7.80;;;;;;;;;;5030221;28;20280;-63
2021/09/15 13:21:45;;;;;;;11.87;8.60;;;;;;;;;;5020449;28;20080;-63
2021/09/15 13:24:10;;;;;;;11.50;7.35;;;;;;;;;;5017835;28;20665;-62
2021/09/15 13:26:35;;;;;;;14.18;8.48;;;;;;;;;;5026789;28;20022;-64
2021/09/15 13:29:01;;;;;;;13.90;9.05;;;;;;;;;;5019866;28;20374;-62
2021/09/15 13:31:27;;;;;;;14.27;9.40;;;;;;;;;;5021538;28;20078;-63
2021/09/15 13:33:52;;;;;;;13.77;9.63;;;;;;;;;;5019564;28;20189;-63
2021/09/15 13:36:18;;;;;;;13.23;10.48;;;;;;;;;;5019070;28;20018;-62
2021/09/15 13:38:43;;;;;;;17.23;10.60;;;;;;;;;;5026600;28;20033;-62
2021/09/15 13:41:08;;;;;;;17.57;10.80;;;;;;;;;;5029068;28;20037;-62
2021/09/15 13:43:33;;;;;;;16.05;10.57;;;;;;;;;;5031139;28;20311;-63
2021/09/15 13:46:03;;;;;;;15.75;10.85;;;;;;;;;;5030952;28;20044;-61
2021/09/15 13:48:28;;;;;;;16.65;11.15;;;;;;;;;;5028477;28;20029;-62
2021/09/15 13:50:53;;;;;;;20.63;12.17;;;;;;;;;;5023762;28;20021;-63
2021/09/15 13:53:19;;;;;;;21.30;13.00;;;;;;;;;;5029339;28;20378;-63
2021/09/15 13:55:44;;;;;;;17.93;12.40;;;;;;;;;;5022024;28;20291;-62
2021/09/15 13:58:09;;;;;;;18.80;12.43;;;;;;;;;;5021326;28;20645;-62
2021/09/15 14:00:34;;;;;;;19.23;12.87;;;;;;;;;;5019908;28;20277;-62
2021/09/15 14:02:59;;;;;;;14.82;11.25;;;;;;;;;;5022917;28;20502;-61
2021/09/15 14:05:24;;;;;;;16.52;11.52;;;;;;;;;;5022000;28;20057;-62
2021/09/15 14:07:50;;;;;;;18.90;9.88;;;;;;;;;;5020687;28;20021;-63
2021/09/15 14:10:15;;;;;;;15.32;10.70;;;;;;;;;;5026619;28;20026;-62
2021/09/15 14:12:40;;;;;;;18.13;10.38;;;;;;;;;;5018793;28;20104;-63
2021/09/15 14:15:06;;;;;;;19.60;11.07;;;;;;;;;;5020450;28;20072;-63
2021/09/15 14:17:31;;;;;;;14.82;9.73;;;;;;;;;;5024990;28;20276;-63
2021/09/15 14:19:56;;;;;;;13.02;9.18;;;;;;;;;;5017627;28;20502;-63
2021/09/15 14:22:21;;;;;;;15.95;10.00;;;;;;;;;;5017929;28;20037;-62
2021/09/15 14:24:49;;;;;;;17.00;11.00;;;;;;;;;;5027803;28;20013;-62
2021/09/15 14:27:16;;;;;;;16.05;10.93;;;;;;;;;;5019773;28;20260;-62
2021/09/15 14:29:41;;;;;;;18.45;11.38;;;;;;;;;;5026417;28;20405;-63
2021/09/15 14:32:06;;;;;;;15.63;11.67;;;;;;;;;;5023407;28;20033;-63
2021/09/15 14:34:31;;;;;;;15.55;10.63;;;;;;;;;;5019142;28;20359;-63
2021/09/15 14:36:57;;;;;;;14.13;10.97;;;;;;;;;;5023050;28;20366;-63
2021/09/15 14:39:22;;;;;;;14.53;9.40;;;;;;;;;;5028215;28;20322;-63